»·PEaware :: N101JP KSNA-KCMA

N101JP :: KSNA-KCMA

FLIGHT INFORMATION

Flight Status: Arrived
Operator: Privately registered:
United States
More flights under this callsign
Pilot: James T. (870)
Aircraft: PILATUS PC-12 EAGLE
(PC12)
More flights by this aircraft type
Origin: KSNA John Wayne-Orange Co
United States
Destination: KCMA Camarillo
United States
More flights between these airports :: More routes between these airports
Route: SLI V23 LAX VNY
File this flight plan on PilotEdge
Remarks:
Altitude:
(Current/Filed)
60ft
Speed:
(Current/Filed)
200kts
Departed: 27-Jun-15 03:57 PM
Arrived: 27-Jun-15 04:35 PM
Distance/Time
Traveled:
69nm/0:37
Distance/Time
To Go:
Arrived

Flight Plot

Page will automatically refresh every two minutes.


Map Options




Map Legend


Flown Route
Filed Route
Departure Airport
Arrival Airport
Navaid (VOR, NDB)
Fix

Horizontal Profiles

Position Reports

Time Latitude Longitude Heading Altitude Ground
Speed
27-Jun-15 15:48 33.682393 -117.860338 118 61ft 0kts
27-Jun-15 15:49 33.682393 -117.860338 118 61ft 0kts
27-Jun-15 15:50 33.682393 -117.860338 118 61ft 0kts
27-Jun-15 15:51 33.682393 -117.860338 118 61ft 0kts
27-Jun-15 15:52 33.682393 -117.860338 118 61ft 0kts
27-Jun-15 15:53 33.681968 -117.861521 213 61ft 13kts
27-Jun-15 15:54 33.680017 -117.863697 300 61ft 0kts
27-Jun-15 15:55 33.680017 -117.863697 300 61ft 0kts
27-Jun-15 15:56 33.678727 -117.865045 208 62ft 53kts
27-Jun-15 15:57 33.659901 -117.886497 234 630ft 147kts
27-Jun-15 15:58 33.639318 -117.919577 234 1803ft 153kts
27-Jun-15 15:59 33.624016 -117.955904 290 2993ft 157kts
27-Jun-15 16:00 33.654408 -117.978677 331 4197ft 162kts
27-Jun-15 16:01 33.687516 -117.998290 331 5395ft 163kts
27-Jun-15 16:02 33.721687 -118.018482 331 6002ft 180kts
27-Jun-15 16:03 33.761116 -118.041818 331 6000ft 204kts
27-Jun-15 16:04 33.806472 -118.056552 353 5972ft 215kts
27-Jun-15 16:05 33.855091 -118.060942 355 5956ft 217kts
27-Jun-15 16:06 33.895184 -118.083955 278 5942ft 219kts
27-Jun-15 16:07 33.897922 -118.142771 273 5959ft 212kts
27-Jun-15 16:08 33.899801 -118.199711 273 5964ft 205kts
27-Jun-15 16:09 33.901304 -118.250626 273 5975ft 200kts
27-Jun-15 16:10 33.907013 -118.303663 283 5974ft 194kts
27-Jun-15 16:11 33.917466 -118.354660 283 5978ft 190kts
27-Jun-15 16:12 33.927891 -118.405397 282 5976ft 191kts
27-Jun-15 16:13 33.958548 -118.435854 344 5977ft 199kts
27-Jun-15 16:14 34.003170 -118.446349 347 5968ft 201kts
27-Jun-15 16:15 34.047992 -118.455724 348 5964ft 201kts
27-Jun-15 16:16 34.085515 -118.463420 349 5960ft 202kts
27-Jun-15 16:17 34.130541 -118.472605 349 6005ft 202kts
27-Jun-15 16:18 34.156689 -118.524802 288 5170ft 218kts
27-Jun-15 16:19 34.172508 -118.572435 291 4175ft 229kts
27-Jun-15 16:20 34.191215 -118.627118 291 3978ft 201kts
27-Jun-15 16:21 34.207797 -118.675615 291 3966ft 180kts
27-Jun-15 16:22 34.222345 -118.718533 285 3965ft 159kts
27-Jun-15 16:23 34.226667 -118.759549 276 3996ft 146kts
27-Jun-15 16:24 34.230186 -118.798279 276 4003ft 138kts
27-Jun-15 16:25 34.228636 -118.836476 266 3334ft 137kts
27-Jun-15 16:26 34.226603 -118.869068 267 3285ft 104kts
27-Jun-15 16:27 34.224629 -118.900804 266 2781ft 117kts
27-Jun-15 16:28 34.222720 -118.931436 267 2792ft 108kts
27-Jun-15 16:29 34.220792 -118.961909 267 2262ft 109kts
27-Jun-15 16:30 34.218918 -118.991293 266 1756ft 106kts
27-Jun-15 16:31 34.217093 -119.019975 267 1241ft 102kts
27-Jun-15 16:32 34.215317 -119.047679 267 758ft 99kts
27-Jun-15 16:33 34.213583 -119.074687 268 288ft 97kts
27-Jun-15 16:34 34.213734 -119.092420 272 83ft 16kts
27-Jun-15 16:35 34.211584 -119.094918 152 81ft 15kts
27-Jun-15 16:36 34.210866 -119.091206 89 80ft 12kts
27-Jun-15 16:37 34.210080 -119.089600 11 79ft 3kts
27-Jun-15 16:38 34.210203 -119.089621 0 79ft 0kts
27-Jun-15 16:39 34.210203 -119.089621 0 79ft 0kts

Navigation Log

Ident Type
Flight plan parsing failed, navigation log unavailable